createdAt,value
2023-01-28T02:59:04.839Z,800.00
2023-01-28T03:00:04.784Z,800.00
2023-01-28T03:01:04.704Z,801.00
2023-01-28T03:02:04.641Z,801.00
2023-01-28T03:37:02.546Z,774.00
2023-01-28T03:39:02.451Z,771.00
2023-01-28T04:07:00.878Z,763.00
2023-01-28T04:08:00.797Z,761.00
2023-01-28T04:09:00.760Z,759.00
2023-01-28T04:10:00.683Z,758.00
2023-01-28T04:11:00.637Z,757.00
2023-01-28T04:12:00.590Z,757.00
2023-01-28T04:13:00.524Z,756.00
2023-01-28T04:14:00.461Z,754.00
2023-01-28T04:15:00.396Z,755.00
2023-01-28T04:16:00.438Z,751.00
2023-01-28T04:17:00.313Z,750.00
2023-01-28T04:18:00.228Z,751.00
2023-01-28T04:19:00.188Z,750.00
2023-01-28T04:20:00.142Z,752.00
2023-01-28T04:21:00.075Z,754.00
2023-01-28T04:22:00.000Z,753.00
2023-01-28T04:22:59.955Z,752.00
2023-01-28T04:23:59.957Z,752.00
2023-01-28T04:24:59.845Z,754.00
2023-01-28T04:25:59.782Z,757.00
2023-01-28T04:26:59.749Z,759.00
2023-01-28T04:27:59.669Z,760.00
2023-01-28T04:28:59.614Z,762.00
2023-01-28T04:29:59.556Z,765.00
2023-01-28T04:30:59.546Z,761.00
2023-01-28T04:31:59.458Z,760.00
2023-01-28T04:32:59.394Z,758.00
2023-01-28T04:33:59.364Z,756.00
2023-01-28T04:34:59.282Z,755.00
2023-01-28T04:35:59.226Z,754.00
2023-01-28T04:36:59.171Z,752.00
2023-01-28T04:37:59.115Z,755.00
2023-01-28T04:38:59.067Z,754.00
2023-01-28T04:39:59.015Z,753.00
2023-01-28T04:40:58.960Z,754.00
2023-01-28T04:41:58.910Z,755.00
2023-01-28T04:42:58.899Z,751.00
2023-01-28T04:43:58.807Z,752.00
2023-01-28T04:44:58.773Z,750.00
2023-01-28T04:45:58.712Z,752.00
2023-01-28T04:46:58.699Z,754.00
2023-01-28T04:47:58.623Z,756.00
2023-01-28T04:48:58.573Z,752.00
2023-01-28T04:49:58.523Z,749.00
2023-01-28T04:50:58.468Z,749.00
2023-01-28T04:51:58.419Z,747.00
2023-01-28T04:52:58.370Z,743.00
2023-01-28T04:53:58.353Z,744.00
2023-01-28T04:54:58.289Z,744.00
2023-01-28T04:55:58.254Z,748.00
2023-01-28T04:56:58.179Z,744.00
2023-01-28T04:57:58.119Z,743.00
2023-01-28T04:58:58.077Z,742.00
2023-01-28T04:59:58.023Z,746.00
2023-01-28T05:00:57.999Z,745.00
2023-01-28T05:01:57.956Z,746.00
2023-01-28T05:02:57.882Z,743.00
2023-01-28T05:03:57.816Z,741.00
2023-01-28T05:04:57.761Z,742.00
2023-01-28T05:05:57.707Z,740.00
2023-01-28T05:06:57.655Z,739.00
2023-01-28T05:07:57.602Z,738.00
2023-01-28T05:08:57.551Z,738.00
2023-01-28T05:09:57.500Z,738.00
2023-01-28T05:10:57.447Z,737.00
2023-01-28T05:11:57.404Z,737.00
2023-01-28T05:12:57.333Z,736.00
2023-01-28T05:13:57.323Z,735.00
2023-01-28T05:14:57.231Z,735.00
2023-01-28T05:15:57.176Z,734.00
2023-01-28T05:16:57.114Z,733.00
2023-01-28T05:17:57.056Z,730.00
2023-01-28T05:18:56.998Z,728.00
2023-01-28T05:19:56.964Z,727.00
2023-01-28T05:20:56.909Z,726.00
2023-01-28T05:21:56.838Z,726.00
2023-01-28T05:22:56.780Z,726.00
2023-01-28T05:23:56.765Z,726.00
2023-01-28T05:24:56.684Z,727.00
2023-01-28T05:25:56.631Z,727.00
2023-01-28T05:26:56.572Z,729.00
2023-01-28T05:27:56.521Z,727.00
2023-01-28T05:28:56.486Z,726.00
2023-01-28T05:29:56.433Z,724.00
2023-01-28T05:30:56.445Z,723.00
2023-01-28T05:31:56.346Z,718.00
2023-01-28T05:32:56.284Z,718.00
2023-01-28T05:33:56.227Z,722.00
2023-01-28T05:34:56.172Z,722.00
2023-01-28T05:35:56.119Z,724.00
2023-01-28T05:36:56.097Z,722.00
2023-01-28T05:37:56.014Z,719.00
2023-01-28T05:38:55.966Z,718.00
2023-01-28T05:39:55.929Z,719.00
2023-01-28T05:40:55.865Z,720.00
2023-01-28T05:41:55.808Z,721.00
2023-01-28T05:42:55.758Z,720.00
2023-01-28T05:43:55.733Z,722.00
2023-01-28T05:44:55.688Z,721.00
2023-01-28T05:45:55.664Z,723.00
2023-01-28T05:46:55.559Z,722.00
2023-01-28T05:47:55.522Z,721.00
2023-01-28T05:48:55.452Z,721.00
2023-01-28T05:49:55.399Z,719.00
2023-01-28T05:50:55.346Z,716.00
2023-01-28T05:51:55.323Z,715.00
2023-01-28T05:52:55.252Z,714.00
2023-01-28T05:53:55.209Z,714.00
2023-01-28T05:54:55.157Z,715.00
2023-01-28T05:55:55.090Z,716.00
2023-01-28T05:56:55.048Z,717.00
2023-01-28T05:57:54.988Z,717.00
2023-01-28T05:58:54.947Z,714.00
2023-01-28T05:59:54.899Z,715.00
2023-01-28T06:00:54.847Z,713.00
2023-01-28T06:01:54.811Z,713.00
2023-01-28T06:02:54.745Z,712.00
2023-01-28T06:03:54.683Z,713.00
2023-01-28T07:36:49.862Z,687.00
2023-01-28T07:37:49.804Z,688.00
2023-01-28T07:38:49.770Z,689.00
2023-01-28T07:39:49.704Z,688.00
2023-01-28T07:40:49.644Z,689.00
2023-01-28T07:41:49.600Z,689.00
2023-01-28T07:42:49.537Z,687.00
2023-01-28T07:43:49.475Z,690.00
2023-01-28T07:44:49.424Z,690.00
2023-01-28T07:45:49.368Z,688.00
2023-01-28T07:46:49.330Z,690.00
2023-01-28T07:47:49.269Z,688.00
2023-01-28T07:48:49.249Z,686.00
2023-01-28T07:49:49.154Z,686.00
2023-01-28T07:50:49.102Z,686.00
2023-01-28T07:51:49.042Z,684.00
2023-01-28T07:52:48.985Z,683.00
2023-01-28T07:53:48.940Z,683.00
2023-01-28T07:54:48.891Z,684.00
2023-01-28T07:55:48.820Z,685.00
2023-01-28T07:56:48.777Z,682.00
2023-01-28T07:57:48.715Z,681.00
2023-01-28T07:58:48.661Z,677.00
2023-01-28T07:59:48.602Z,679.00
2023-01-28T08:00:48.542Z,679.00
2023-01-28T08:01:48.491Z,680.00
2023-01-28T08:02:48.443Z,682.00
2023-01-28T08:03:48.375Z,681.00
2023-01-28T08:04:48.467Z,679.00
2023-01-28T08:05:48.255Z,678.00
2023-01-28T08:06:48.213Z,677.00
2023-01-28T08:07:48.159Z,674.00
2023-01-28T08:08:48.107Z,676.00
2023-01-28T08:09:48.049Z,679.00
2023-01-28T08:10:48.000Z,675.00
2023-01-28T08:11:47.954Z,675.00
2023-01-28T08:12:47.897Z,676.00
2023-01-28T08:13:47.843Z,675.00
2023-01-28T08:14:47.795Z,679.00
2023-01-28T08:15:47.761Z,678.00
2023-01-28T08:16:47.699Z,677.00
2023-01-28T08:17:47.628Z,678.00
2023-01-28T08:18:47.579Z,676.00
2023-01-28T08:19:47.521Z,675.00
2023-01-28T08:20:47.582Z,675.00
2023-01-28T08:21:47.433Z,680.00
2023-01-28T08:22:47.383Z,679.00
2023-01-28T08:23:47.322Z,679.00
2023-01-28T08:24:47.269Z,677.00
2023-01-28T08:25:47.260Z,675.00
2023-01-28T08:26:47.159Z,675.00
2023-01-28T08:27:47.112Z,676.00
2023-01-28T08:28:47.053Z,674.00
2023-01-28T08:29:47.001Z,673.00
2023-01-28T08:30:47.131Z,673.00
2023-01-28T08:31:47.019Z,673.00
2023-01-28T08:32:46.890Z,670.00
2023-01-28T08:33:46.819Z,669.00
2023-01-28T08:34:46.797Z,668.00
2023-01-28T08:35:46.742Z,670.00
2023-01-28T08:36:46.691Z,673.00
2023-01-28T08:37:46.656Z,674.00
2023-01-28T08:38:46.595Z,673.00
2023-01-28T08:39:46.674Z,669.00
2023-01-28T08:40:46.543Z,672.00
2023-01-28T08:41:46.449Z,674.00
2023-01-28T08:42:46.392Z,673.00
2023-01-28T08:43:46.327Z,675.00
2023-01-28T08:44:46.292Z,673.00
2023-01-28T08:45:46.224Z,674.00
2023-01-28T08:46:46.231Z,670.00
2023-01-28T08:47:46.126Z,670.00
2023-01-28T08:48:46.061Z,668.00
2023-01-28T08:49:46.022Z,666.00
2023-01-28T08:50:45.988Z,667.00
2023-01-28T08:51:45.909Z,669.00
2023-01-28T08:52:45.873Z,672.00
2023-01-28T08:53:45.812Z,669.00
2023-01-28T08:54:45.760Z,668.00
2023-01-28T08:55:45.694Z,668.00
2023-01-28T08:56:45.643Z,667.00
2023-01-28T08:57:45.602Z,670.00
2023-01-28T08:58:45.533Z,669.00
2023-01-28T08:59:45.496Z,670.00
2023-01-28T09:00:45.436Z,669.00
2023-01-28T09:01:45.493Z,669.00
2023-01-28T09:02:45.331Z,668.00
2023-01-28T09:03:45.366Z,668.00
2023-01-28T09:04:45.234Z,665.00
2023-01-28T09:05:45.181Z,665.00
2023-01-28T09:06:45.113Z,663.00
2023-01-28T09:07:45.099Z,663.00
2023-01-28T09:08:45.132Z,660.00
2023-01-28T09:09:44.949Z,659.00
2023-01-28T09:10:44.968Z,660.00
2023-01-28T09:11:44.918Z,660.00
2023-01-28T09:12:44.794Z,662.00
2023-01-28T09:13:44.735Z,663.00
2023-01-28T09:14:44.681Z,662.00
2023-01-28T11:03:39.267Z,638.00
2023-01-28T11:04:39.217Z,637.00
2023-01-28T11:05:39.158Z,636.00
2023-01-28T11:06:39.111Z,636.00
2023-01-28T11:07:39.074Z,635.00
2023-01-28T11:08:39.006Z,634.00
2023-01-28T11:09:38.955Z,636.00
2023-01-28T11:10:38.914Z,636.00
2023-01-28T11:11:38.857Z,635.00
2023-01-28T11:12:38.807Z,634.00
2023-01-28T11:13:38.756Z,635.00
2023-01-28T11:14:38.698Z,634.00
2023-01-28T11:15:38.654Z,633.00
2023-01-28T11:16:38.600Z,632.00
2023-01-28T11:17:38.627Z,634.00
2023-01-28T11:18:38.508Z,633.00
2023-01-28T11:19:38.456Z,633.00
2023-01-28T11:20:38.408Z,634.00
2023-01-28T11:21:38.376Z,636.00
2023-01-28T11:22:38.303Z,638.00
2023-01-28T11:23:38.258Z,639.00
2023-01-28T11:24:38.217Z,638.00
2023-01-28T11:25:38.164Z,638.00
2023-01-28T11:26:38.127Z,637.00
2023-01-28T11:27:38.061Z,638.00
2023-01-28T11:28:38.004Z,636.00
2023-01-28T11:29:37.955Z,635.00
2023-01-28T11:30:37.970Z,637.00
2023-01-28T11:31:37.907Z,636.00
2023-01-28T11:32:37.794Z,634.00
2023-01-28T11:33:37.747Z,634.00
2023-01-28T11:34:37.697Z,633.00
2023-01-28T11:35:37.672Z,635.00
2023-01-28T11:36:37.599Z,636.00
2023-01-28T11:37:37.558Z,637.00
2023-01-28T11:38:37.522Z,637.00
2023-01-28T11:39:37.501Z,637.00
2023-01-28T11:40:37.418Z,635.00
2023-01-28T11:41:37.365Z,635.00
2023-01-28T11:42:37.315Z,635.00
2023-01-28T11:43:37.264Z,635.00
2023-01-28T11:44:37.218Z,635.00
2023-01-28T11:45:37.222Z,634.00
2023-01-28T11:46:37.103Z,635.00
2023-01-28T11:47:37.053Z,637.00
2023-01-28T11:48:36.995Z,638.00
2023-01-28T11:49:36.936Z,637.00
2023-01-28T11:50:36.904Z,638.00
2023-01-28T11:51:36.841Z,638.00
2023-01-28T11:53:02.615Z,637.00
2023-01-28T11:53:37.728Z,636.00
2023-01-28T11:54:36.675Z,636.00
2023-01-28T11:55:36.604Z,632.00
2023-01-28T11:56:36.537Z,633.00
2023-01-28T11:57:36.469Z,634.00
2023-01-28T11:58:36.402Z,636.00
2023-01-28T11:59:36.348Z,635.00
2023-01-28T12:00:36.302Z,636.00
2023-01-28T12:01:36.209Z,636.00
2023-01-28T12:02:36.160Z,633.00
2023-01-28T12:03:36.055Z,632.00
2023-01-28T12:04:36.029Z,630.00
2023-01-28T12:05:35.925Z,629.00
2023-01-28T12:06:35.853Z,630.00
2023-01-28T12:07:35.786Z,630.00
2023-01-28T12:08:35.722Z,628.00
2023-01-28T12:09:35.667Z,627.00
2023-01-28T12:10:35.581Z,624.00
2023-01-28T12:11:35.524Z,625.00
2023-01-28T12:12:35.451Z,626.00
2023-01-28T12:13:35.389Z,629.00
2023-01-28T12:14:35.323Z,629.00
2023-01-28T12:15:35.291Z,630.00
2023-01-28T12:16:35.198Z,631.00
2023-01-28T12:17:35.121Z,630.00
2023-01-28T12:18:35.045Z,632.00
2023-01-28T12:19:35.006Z,632.00
2023-01-28T12:20:34.932Z,632.00
2023-01-28T12:21:34.849Z,630.00
2023-01-28T12:22:34.786Z,630.00
2023-01-28T12:23:34.716Z,629.00
2023-01-28T14:47:25.930Z,602.00
2023-01-28T14:55:25.465Z,601.00
2023-01-28T14:56:25.408Z,602.00
2023-01-28T14:57:25.350Z,603.00
2023-01-28T14:58:25.304Z,604.00
2023-01-28T14:59:25.234Z,605.00
2023-01-28T15:00:25.171Z,606.00
2023-01-28T15:01:25.173Z,604.00
2023-01-28T15:02:25.127Z,604.00
2023-01-28T15:03:25.813Z,604.00
2023-01-28T15:04:24.952Z,604.00
2023-01-28T15:05:24.902Z,603.00
2023-01-28T15:06:24.834Z,602.00
2023-01-28T15:07:24.793Z,601.00
2023-01-28T15:08:24.744Z,603.00
2023-01-28T15:09:24.685Z,602.00
2023-01-28T16:57:19.945Z,599.00
2023-01-28T17:15:19.513Z,590.00
2023-01-28T17:16:19.110Z,592.00
2023-01-28T17:17:19.052Z,592.00
2023-01-28T17:18:19.005Z,592.00
2023-01-28T17:19:18.968Z,592.00
2023-01-28T17:20:18.910Z,591.00
2023-01-28T17:21:18.872Z,589.00
2023-01-28T17:22:18.797Z,590.00
2023-01-28T17:23:18.760Z,592.00
2023-01-28T17:24:18.741Z,592.00
2023-01-28T17:25:18.767Z,591.00
2023-01-28T17:26:18.608Z,592.00
2023-01-28T17:27:18.558Z,591.00
2023-01-28T17:28:18.514Z,593.00
2023-01-28T17:29:18.458Z,594.00
2023-01-28T17:30:18.405Z,591.00
2023-01-28T17:31:18.462Z,590.00
2023-01-28T17:32:18.317Z,589.00
2023-01-28T17:33:18.273Z,591.00
2023-01-28T17:34:18.221Z,589.00
2023-01-28T17:35:18.451Z,590.00
2023-01-28T17:36:18.129Z,592.00
2023-01-28T17:37:18.101Z,592.00
2023-01-28T17:38:18.044Z,591.00
2023-01-28T17:39:17.983Z,591.00
2023-01-28T17:40:17.917Z,591.00
2023-01-28T17:41:17.878Z,591.00
2023-01-28T17:42:17.818Z,591.00
2023-01-28T17:43:17.789Z,591.00
2023-01-28T17:44:17.713Z,592.00
2023-01-28T17:45:18.301Z,594.00
2023-01-28T17:46:17.656Z,594.00
2023-01-28T17:47:17.569Z,594.00
2023-01-28T17:48:17.504Z,595.00
2023-01-28T17:49:17.436Z,594.00
2023-01-28T17:50:17.391Z,595.00
2023-01-28T17:51:17.333Z,594.00
2023-01-28T17:52:17.272Z,596.00
2023-01-28T17:53:17.231Z,597.00
2023-01-28T17:54:17.179Z,596.00
2023-01-28T17:55:17.428Z,595.00
2023-01-28T17:56:17.073Z,592.00
2023-01-28T17:57:17.027Z,592.00
2023-01-28T17:58:16.970Z,591.00
2023-01-28T17:59:17.718Z,590.00
2023-01-28T18:00:16.867Z,589.00
2023-01-28T18:01:16.885Z,589.00
2023-01-28T18:02:16.806Z,589.00
2023-01-28T18:03:16.713Z,589.00
2023-01-28T18:04:16.673Z,590.00
2023-01-28T18:05:16.979Z,591.00
2023-01-28T18:06:16.599Z,590.00
2023-01-28T18:07:16.527Z,590.00
2023-01-28T18:08:16.460Z,591.00
2023-01-28T18:09:16.412Z,591.00
2023-01-28T18:10:16.407Z,590.00
2023-01-28T18:11:16.339Z,590.00
2023-01-28T18:12:16.299Z,586.00
2023-01-28T18:13:16.216Z,588.00
2023-01-28T18:14:16.166Z,586.00
2023-01-28T18:15:16.525Z,584.00
2023-01-28T18:16:16.162Z,585.00
2023-01-28T18:17:16.099Z,588.00
2023-01-28T18:18:15.993Z,591.00
2023-01-28T18:19:15.938Z,589.00
2023-01-28T18:20:15.889Z,589.00
2023-01-28T18:21:15.827Z,589.00
2023-01-28T18:22:15.781Z,591.00
2023-01-28T18:23:15.727Z,590.00
2023-01-28T18:24:15.755Z,589.00
2023-01-28T18:25:15.914Z,588.00
2023-01-28T18:26:15.582Z,589.00
2023-01-28T18:27:15.530Z,589.00
2023-01-28T18:28:15.483Z,589.00
2023-01-28T18:29:15.439Z,588.00
2023-01-28T18:30:15.382Z,588.00
2023-01-28T18:31:15.452Z,587.00
2023-01-28T18:32:15.283Z,587.00
2023-01-28T18:33:15.232Z,588.00
2023-01-28T18:34:15.200Z,588.00
2023-01-28T18:35:15.582Z,590.00
2023-01-28T18:36:15.086Z,590.00
2023-01-28T18:37:15.052Z,591.00
2023-01-28T18:38:14.981Z,591.00
2023-01-28T18:39:14.938Z,590.00
2023-01-28T18:40:14.884Z,589.00
2023-01-28T18:41:14.828Z,586.00
2023-01-28T18:42:14.781Z,585.00
2023-01-28T18:43:14.735Z,585.00
2023-01-28T18:44:14.676Z,584.00
2023-01-28T18:45:15.017Z,583.00
2023-01-28T18:46:14.645Z,583.00
2023-01-28T18:47:14.546Z,583.00
2023-01-28T18:48:14.489Z,585.00
2023-01-28T18:49:14.431Z,583.00
2023-01-28T18:50:14.406Z,581.00
2023-01-28T18:51:28.934Z,582.00
2023-01-28T18:52:15.325Z,581.00
2023-01-28T18:53:14.255Z,580.00
2023-01-28T18:54:14.857Z,580.00
2023-01-28T18:55:14.622Z,580.00
2023-01-28T18:56:14.088Z,581.00
2023-01-28T18:57:14.032Z,580.00
2023-01-28T18:58:13.980Z,582.00
2023-01-28T18:59:13.935Z,583.00
2023-01-28T19:00:13.899Z,585.00
2023-01-28T19:01:13.870Z,585.00
2023-01-28T19:02:13.823Z,588.00
2023-01-28T19:03:13.727Z,587.00
2023-01-28T19:04:13.683Z,585.00
2023-01-28T19:05:14.014Z,584.00
2023-01-28T19:06:13.596Z,585.00
2023-01-28T19:07:13.554Z,585.00
2023-01-28T19:08:13.503Z,583.00
2023-01-28T19:09:13.444Z,580.00
2023-01-28T19:10:13.429Z,579.00
2023-01-28T19:11:13.344Z,581.00
2023-01-28T19:12:13.295Z,581.00
2023-01-28T19:13:13.261Z,583.00
2023-01-28T19:14:13.204Z,582.00
2023-01-28T19:15:13.248Z,582.00
2023-01-28T19:16:13.130Z,583.00
2023-01-28T19:17:13.057Z,582.00
2023-01-28T19:18:12.981Z,582.00
2023-01-28T19:19:12.940Z,585.00
2023-01-28T19:20:12.884Z,584.00
2023-01-28T19:21:12.836Z,586.00
2023-01-28T19:22:12.787Z,586.00
2023-01-28T19:23:12.736Z,583.00
2023-01-28T19:24:12.726Z,580.00
2023-01-28T19:25:12.674Z,578.00
2023-01-28T19:26:12.579Z,577.00
2023-01-28T19:27:12.544Z,578.00
2023-01-28T19:28:12.476Z,575.00
2023-01-28T19:29:15.190Z,575.00
2023-01-28T19:30:12.380Z,578.00
2023-01-28T19:31:12.371Z,580.00
2023-01-28T19:32:12.266Z,582.00
2023-01-28T19:33:12.218Z,580.00
2023-01-28T19:34:12.154Z,580.00
2023-01-28T19:35:12.117Z,580.00
2023-01-28T19:36:12.057Z,580.00
2023-01-28T19:37:12.024Z,580.00
2023-01-28T19:38:11.943Z,583.00
2023-01-28T19:39:11.906Z,585.00
2023-01-28T19:40:11.858Z,586.00
2023-01-28T19:41:11.787Z,585.00
2023-01-28T19:42:11.725Z,586.00
2023-01-28T19:43:11.683Z,585.00
2023-01-28T19:44:11.627Z,584.00
2023-01-28T19:45:11.634Z,584.00
2023-01-28T19:46:11.570Z,580.00
2023-01-28T19:47:11.476Z,579.00
2023-01-28T19:48:11.429Z,578.00
2023-01-28T19:49:11.357Z,577.00
2023-01-28T19:50:11.351Z,578.00
2023-01-28T19:51:11.249Z,576.00
2023-01-28T19:52:11.194Z,575.00
2023-01-28T19:53:11.145Z,572.00
2023-01-28T19:54:11.080Z,572.00
2023-01-28T19:55:11.040Z,573.00
2023-01-28T19:56:10.978Z,573.00
2023-01-28T19:57:10.958Z,572.00
2023-01-28T19:58:10.879Z,571.00
2023-01-28T19:59:10.821Z,573.00
2023-01-28T20:00:10.779Z,570.00
2023-01-28T20:01:10.757Z,570.00
2023-01-28T20:02:10.750Z,569.00
2023-01-28T20:03:10.624Z,570.00
2023-01-28T20:04:10.579Z,572.00
2023-01-28T20:05:10.520Z,573.00
2023-01-28T20:06:10.479Z,576.00
2023-01-28T20:07:10.434Z,575.00
2023-01-28T20:08:10.383Z,570.00
2023-01-28T20:09:10.319Z,571.00
2023-01-28T20:10:12.178Z,571.00
2023-01-28T20:11:10.211Z,572.00
2023-01-28T20:12:10.163Z,571.00
2023-01-28T20:13:10.114Z,571.00
2023-01-28T20:14:10.070Z,571.00
2023-01-28T20:15:10.000Z,571.00
2023-01-28T20:16:10.046Z,570.00
2023-01-28T20:17:09.951Z,569.00
2023-01-28T20:18:09.850Z,569.00
2023-01-28T20:19:09.788Z,567.00
2023-01-28T20:20:09.730Z,568.00
2023-01-28T20:21:09.675Z,568.00
2023-01-28T20:22:09.638Z,571.00
2023-01-28T20:23:09.565Z,571.00
2023-01-28T20:24:09.556Z,571.00
2023-01-28T20:25:09.457Z,573.00
2023-01-28T20:26:09.393Z,572.00
2023-01-28T20:27:09.352Z,572.00
2023-01-28T20:28:09.290Z,573.00
2023-01-28T20:29:09.236Z,571.00
2023-01-28T20:30:09.167Z,571.00
2023-01-28T20:31:09.243Z,572.00
2023-01-28T20:32:16.500Z,572.00
2023-01-28T20:33:10.010Z,573.00
2023-01-28T20:34:08.959Z,572.00
2023-01-28T20:35:08.899Z,572.00
2023-01-28T20:36:08.844Z,570.00
2023-01-28T20:37:08.790Z,570.00
2023-01-28T20:38:08.727Z,571.00
2023-01-28T20:39:08.696Z,571.00
2023-01-28T20:40:08.631Z,571.00
2023-01-28T20:41:08.592Z,572.00
2023-01-28T20:42:08.508Z,571.00
2023-01-28T20:43:08.470Z,570.00
2023-01-28T20:44:08.395Z,570.00
2023-01-28T20:45:08.343Z,567.00
2023-01-28T20:46:08.317Z,565.00
2023-01-28T20:47:08.233Z,568.00
2023-01-28T20:48:08.193Z,569.00
2023-01-28T20:49:08.139Z,571.00
2023-01-28T20:50:08.088Z,569.00
2023-01-28T20:51:08.029Z,568.00
2023-01-28T20:52:07.968Z,568.00
2023-01-28T20:53:07.909Z,569.00
2023-01-28T20:54:07.867Z,571.00
2023-01-28T20:55:07.816Z,573.00
2023-01-28T20:56:07.739Z,572.00
2023-01-28T20:57:07.703Z,569.00
2023-01-28T20:58:07.640Z,571.00
2023-01-28T20:59:07.593Z,571.00
2023-01-28T21:00:07.524Z,571.00
2023-01-28T21:01:07.495Z,572.00
2023-01-28T21:02:07.416Z,575.00
2023-01-28T21:03:07.379Z,574.00
2023-01-28T21:04:09.055Z,573.00
2023-01-28T21:05:07.271Z,572.00
2023-01-28T21:06:07.205Z,573.00
2023-01-28T21:07:07.143Z,572.00
2023-01-28T21:08:07.104Z,571.00
2023-01-28T21:09:07.041Z,571.00
2023-01-28T21:10:06.985Z,573.00
2023-01-28T21:11:06.931Z,573.00
2023-01-28T21:12:06.868Z,572.00
2023-01-28T21:13:06.810Z,572.00
2023-01-28T21:14:06.758Z,571.00
2023-01-28T21:15:06.731Z,570.00
2023-01-28T21:16:06.664Z,572.00
2023-01-28T21:17:06.645Z,573.00
2023-01-28T21:18:06.551Z,571.00
2023-01-28T21:19:06.499Z,571.00
2023-01-28T21:20:06.445Z,570.00
2023-01-28T21:21:06.395Z,568.00
2023-01-28T21:22:06.315Z,568.00
2023-01-28T21:23:06.264Z,570.00
2023-01-28T21:24:06.215Z,571.00
2023-01-28T21:25:06.146Z,572.00
2023-01-28T21:26:06.107Z,571.00
2023-01-28T21:27:06.042Z,570.00
2023-01-28T21:28:05.979Z,571.00
2023-01-28T21:29:05.941Z,570.00
2023-01-28T21:30:05.876Z,569.00
2023-01-28T21:31:05.845Z,570.00
2023-01-28T21:32:05.802Z,570.00
2023-01-28T21:33:05.714Z,570.00
2023-01-28T21:34:05.638Z,571.00
2023-01-28T21:35:05.586Z,570.00
2023-01-28T21:36:05.511Z,571.00
2023-01-28T21:37:05.452Z,572.00
2023-01-28T21:38:05.408Z,574.00
2023-01-28T21:39:05.349Z,575.00
2023-01-28T21:40:05.330Z,574.00
2023-01-28T21:41:05.356Z,573.00
2023-01-28T21:42:05.207Z,573.00
2023-01-28T21:43:05.118Z,573.00
2023-01-28T21:44:05.053Z,571.00
2023-01-28T21:45:05.005Z,572.00
2023-01-28T21:46:05.032Z,570.00
2023-01-28T21:47:04.886Z,571.00
2023-01-28T21:48:04.841Z,570.00
2023-01-28T21:49:04.775Z,569.00
2023-01-28T21:50:04.723Z,568.00
2023-01-28T21:51:04.670Z,568.00
